sensor_id;sensor_type;location;lat;lon;timestamp;P1;durP1;ratioP1;P2;durP2;ratioP2
14078;SDS011;7115;50.150;8.568;2023-04-24T00:01:38;3.13;;;0.80;;
14078;SDS011;7115;50.150;8.568;2023-04-24T00:04:05;1.90;;;0.70;;
14078;SDS011;7115;50.150;8.568;2023-04-24T00:06:33;2.00;;;1.00;;
14078;SDS011;7115;50.150;8.568;2023-04-24T00:09:01;1.30;;;0.80;;
14078;SDS011;7115;50.150;8.568;2023-04-24T00:11:29;1.73;;;0.70;;
14078;SDS011;7115;50.150;8.568;2023-04-24T00:13:56;1.00;;;0.63;;
14078;SDS011;7115;50.150;8.568;2023-04-24T00:16:23;1.17;;;0.80;;
14078;SDS011;7115;50.150;8.568;2023-04-24T00:18:50;2.80;;;0.80;;
14078;SDS011;7115;50.150;8.568;2023-04-24T00:21:18;2.07;;;0.87;;
14078;SDS011;7115;50.150;8.568;2023-04-24T00:23:46;3.03;;;0.97;;
14078;SDS011;7115;50.150;8.568;2023-04-24T00:26:14;1.43;;;0.90;;
14078;SDS011;7115;50.150;8.568;2023-04-24T00:28:41;2.57;;;1.00;;
14078;SDS011;7115;50.150;8.568;2023-04-24T00:31:09;2.70;;;1.00;;
14078;SDS011;7115;50.150;8.568;2023-04-24T00:33:36;2.20;;;0.90;;
14078;SDS011;7115;50.150;8.568;2023-04-24T00:36:03;2.07;;;0.80;;
14078;SDS011;7115;50.150;8.568;2023-04-24T00:38:30;2.63;;;0.80;;
14078;SDS011;7115;50.150;8.568;2023-04-24T00:40:56;2.37;;;0.70;;
14078;SDS011;7115;50.150;8.568;2023-04-24T00:43:25;2.27;;;0.80;;
14078;SDS011;7115;50.150;8.568;2023-04-24T00:45:52;2.97;;;0.67;;
14078;SDS011;7115;50.150;8.568;2023-04-24T00:48:19;2.63;;;0.70;;
14078;SDS011;7115;50.150;8.568;2023-04-24T00:50:47;4.27;;;1.20;;
14078;SDS011;7115;50.150;8.568;2023-04-24T00:53:14;1.70;;;0.73;;
14078;SDS011;7115;50.150;8.568;2023-04-24T00:55:41;1.00;;;0.70;;
14078;SDS011;7115;50.150;8.568;2023-04-24T00:58:08;1.70;;;0.97;;
14078;SDS011;7115;50.150;8.568;2023-04-24T01:00:36;3.17;;;1.00;;
14078;SDS011;7115;50.150;8.568;2023-04-24T01:03:03;1.20;;;0.90;;
14078;SDS011;7115;50.150;8.568;2023-04-24T01:05:32;3.53;;;0.90;;
14078;SDS011;7115;50.150;8.568;2023-04-24T01:08:00;2.30;;;1.03;;
14078;SDS011;7115;50.150;8.568;2023-04-24T01:10:28;5.83;;;1.00;;
14078;SDS011;7115;50.150;8.568;2023-04-24T01:12:57;1.17;;;0.80;;
14078;SDS011;7115;50.150;8.568;2023-04-24T01:15:24;3.17;;;1.33;;
14078;SDS011;7115;50.150;8.568;2023-04-24T01:17:52;1.20;;;0.90;;
14078;SDS011;7115;50.150;8.568;2023-04-24T01:20:19;1.70;;;1.10;;
14078;SDS011;7115;50.150;8.568;2023-04-24T01:22:48;3.40;;;1.07;;
14078;SDS011;7115;50.150;8.568;2023-04-24T01:25:15;1.83;;;0.90;;
14078;SDS011;7115;50.150;8.568;2023-04-24T01:27:42;3.43;;;1.30;;
14078;SDS011;7115;50.150;8.568;2023-04-24T01:30:10;2.47;;;1.07;;
14078;SDS011;7115;50.150;8.568;2023-04-24T01:32:38;3.70;;;1.10;;
14078;SDS011;7115;50.150;8.568;2023-04-24T01:35:07;4.70;;;1.33;;
14078;SDS011;7115;50.150;8.568;2023-04-24T01:37:34;2.20;;;0.80;;
14078;SDS011;7115;50.150;8.568;2023-04-24T01:40:05;2.00;;;1.00;;
14078;SDS011;7115;50.150;8.568;2023-04-24T01:42:33;3.20;;;1.20;;
14078;SDS011;7115;50.150;8.568;2023-04-24T01:45:01;4.03;;;1.10;;
14078;SDS011;7115;50.150;8.568;2023-04-24T01:47:30;2.67;;;0.97;;
14078;SDS011;7115;50.150;8.568;2023-04-24T01:49:57;2.33;;;0.97;;
14078;SDS011;7115;50.150;8.568;2023-04-24T01:52:24;1.90;;;0.80;;
14078;SDS011;7115;50.150;8.568;2023-04-24T01:54:51;1.97;;;0.90;;
14078;SDS011;7115;50.150;8.568;2023-04-24T01:57:20;3.27;;;0.80;;
14078;SDS011;7115;50.150;8.568;2023-04-24T01:59:47;4.27;;;1.10;;
14078;SDS011;7115;50.150;8.568;2023-04-24T02:02:14;2.40;;;1.13;;
14078;SDS011;7115;50.150;8.568;2023-04-24T02:04:41;1.63;;;1.00;;
14078;SDS011;7115;50.150;8.568;2023-04-24T02:07:08;2.43;;;0.83;;
14078;SDS011;7115;50.150;8.568;2023-04-24T02:09:35;2.43;;;1.30;;
14078;SDS011;7115;50.150;8.568;2023-04-24T02:12:02;1.23;;;0.93;;
14078;SDS011;7115;50.150;8.568;2023-04-24T02:14:30;3.50;;;1.00;;
14078;SDS011;7115;50.150;8.568;2023-04-24T02:16:57;2.70;;;1.00;;
14078;SDS011;7115;50.150;8.568;2023-04-24T02:19:24;4.73;;;1.10;;
14078;SDS011;7115;50.150;8.568;2023-04-24T02:21:51;0.90;;;0.87;;
14078;SDS011;7115;50.150;8.568;2023-04-24T02:24:17;6.70;;;1.60;;
14078;SDS011;7115;50.150;8.568;2023-04-24T02:26:44;1.43;;;0.93;;
14078;SDS011;7115;50.150;8.568;2023-04-24T02:29:11;2.27;;;1.20;;
14078;SDS011;7115;50.150;8.568;2023-04-24T02:31:39;1.60;;;1.10;;
14078;SDS011;7115;50.150;8.568;2023-04-24T02:34:06;4.13;;;1.40;;
14078;SDS011;7115;50.150;8.568;2023-04-24T02:36:33;4.40;;;1.30;;
14078;SDS011;7115;50.150;8.568;2023-04-24T02:39:00;2.93;;;1.00;;
14078;SDS011;7115;50.150;8.568;2023-04-24T02:41:27;1.93;;;1.13;;
14078;SDS011;7115;50.150;8.568;2023-04-24T02:43:58;1.60;;;0.80;;
14078;SDS011;7115;50.150;8.568;2023-04-24T02:46:25;1.27;;;0.97;;
14078;SDS011;7115;50.150;8.568;2023-04-24T02:48:54;4.07;;;0.97;;
14078;SDS011;7115;50.150;8.568;2023-04-24T02:51:21;1.27;;;0.50;;
14078;SDS011;7115;50.150;8.568;2023-04-24T02:53:48;1.87;;;0.80;;
14078;SDS011;7115;50.150;8.568;2023-04-24T02:56:14;3.20;;;1.17;;
14078;SDS011;7115;50.150;8.568;2023-04-24T02:58:41;2.73;;;0.90;;
14078;SDS011;7115;50.150;8.568;2023-04-24T03:01:08;3.97;;;0.83;;
14078;SDS011;7115;50.150;8.568;2023-04-24T03:03:36;1.23;;;0.83;;
14078;SDS011;7115;50.150;8.568;2023-04-24T03:06:05;1.23;;;0.97;;
14078;SDS011;7115;50.150;8.568;2023-04-24T03:08:34;2.10;;;0.93;;
14078;SDS011;7115;50.150;8.568;2023-04-24T03:11:01;1.40;;;0.80;;
14078;SDS011;7115;50.150;8.568;2023-04-24T03:13:27;1.90;;;0.97;;
14078;SDS011;7115;50.150;8.568;2023-04-24T03:15:54;4.43;;;1.00;;
14078;SDS011;7115;50.150;8.568;2023-04-24T03:18:21;2.00;;;0.73;;
14078;SDS011;7115;50.150;8.568;2023-04-24T03:20:48;3.93;;;0.93;;
14078;SDS011;7115;50.150;8.568;2023-04-24T03:23:17;1.80;;;0.80;;
14078;SDS011;7115;50.150;8.568;2023-04-24T03:25:43;1.53;;;0.80;;
14078;SDS011;7115;50.150;8.568;2023-04-24T03:28:11;2.93;;;1.00;;
14078;SDS011;7115;50.150;8.568;2023-04-24T03:30:38;3.50;;;0.93;;
14078;SDS011;7115;50.150;8.568;2023-04-24T03:33:05;2.40;;;0.93;;
14078;SDS011;7115;50.150;8.568;2023-04-24T03:35:31;4.00;;;0.90;;
14078;SDS011;7115;50.150;8.568;2023-04-24T03:37:58;3.70;;;0.93;;
14078;SDS011;7115;50.150;8.568;2023-04-24T03:40:26;3.23;;;1.07;;
14078;SDS011;7115;50.150;8.568;2023-04-24T03:42:55;6.50;;;1.10;;
14078;SDS011;7115;50.150;8.568;2023-04-24T03:45:22;2.83;;;1.20;;
14078;SDS011;7115;50.150;8.568;2023-04-24T03:47:50;3.10;;;1.07;;
14078;SDS011;7115;50.150;8.568;2023-04-24T03:50:17;1.17;;;0.90;;
14078;SDS011;7115;50.150;8.568;2023-04-24T03:52:43;1.73;;;0.80;;
14078;SDS011;7115;50.150;8.568;2023-04-24T03:55:10;3.63;;;0.80;;
14078;SDS011;7115;50.150;8.568;2023-04-24T03:57:40;2.73;;;0.87;;
14078;SDS011;7115;50.150;8.568;2023-04-24T04:00:07;2.00;;;0.90;;
14078;SDS011;7115;50.150;8.568;2023-04-24T04:02:35;2.60;;;0.90;;
14078;SDS011;7115;50.150;8.568;2023-04-24T04:05:03;1.07;;;0.70;;
14078;SDS011;7115;50.150;8.568;2023-04-24T04:07:30;3.13;;;0.93;;
14078;SDS011;7115;50.150;8.568;2023-04-24T04:09:57;1.63;;;0.67;;
14078;SDS011;7115;50.150;8.568;2023-04-24T04:12:23;2.03;;;0.90;;
14078;SDS011;7115;50.150;8.568;2023-04-24T04:14:52;1.70;;;0.90;;
14078;SDS011;7115;50.150;8.568;2023-04-24T04:17:18;1.00;;;0.80;;
14078;SDS011;7115;50.150;8.568;2023-04-24T04:19:45;1.17;;;0.77;;
14078;SDS011;7115;50.150;8.568;2023-04-24T04:22:12;0.97;;;0.90;;
14078;SDS011;7115;50.150;8.568;2023-04-24T04:24:39;0.93;;;0.80;;
14078;SDS011;7115;50.150;8.568;2023-04-24T04:27:06;0.93;;;0.63;;
14078;SDS011;7115;50.150;8.568;2023-04-24T04:29:34;2.67;;;1.03;;
14078;SDS011;7115;50.150;8.568;2023-04-24T04:32:03;0.77;;;0.73;;
14078;SDS011;7115;50.150;8.568;2023-04-24T04:34:30;2.03;;;1.00;;
14078;SDS011;7115;50.150;8.568;2023-04-24T04:36:57;0.80;;;0.70;;
14078;SDS011;7115;50.150;8.568;2023-04-24T04:39:28;1.17;;;0.93;;
14078;SDS011;7115;50.150;8.568;2023-04-24T04:41:55;2.50;;;1.07;;
14078;SDS011;7115;50.150;8.568;2023-04-24T04:44:23;1.20;;;1.00;;
14078;SDS011;7115;50.150;8.568;2023-04-24T04:46:49;1.70;;;0.83;;
14078;SDS011;7115;50.150;8.568;2023-04-24T04:49:20;1.93;;;0.90;;
14078;SDS011;7115;50.150;8.568;2023-04-24T04:51:47;2.50;;;0.90;;
14078;SDS011;7115;50.150;8.568;2023-04-24T04:54:14;1.27;;;0.90;;
14078;SDS011;7115;50.150;8.568;2023-04-24T04:56:42;1.23;;;1.13;;
14078;SDS011;7115;50.150;8.568;2023-04-24T04:59:09;4.30;;;1.00;;
14078;SDS011;7115;50.150;8.568;2023-04-24T05:01:37;1.40;;;1.17;;
14078;SDS011;7115;50.150;8.568;2023-04-24T05:04:04;2.47;;;1.10;;
14078;SDS011;7115;50.150;8.568;2023-04-24T05:06:32;2.13;;;1.53;;
14078;SDS011;7115;50.150;8.568;2023-04-24T05:08:59;2.97;;;1.00;;
14078;SDS011;7115;50.150;8.568;2023-04-24T05:11:26;1.27;;;1.10;;
14078;SDS011;7115;50.150;8.568;2023-04-24T05:13:53;1.00;;;0.83;;
14078;SDS011;7115;50.150;8.568;2023-04-24T05:16:20;1.60;;;1.00;;
14078;SDS011;7115;50.150;8.568;2023-04-24T05:18:47;2.23;;;1.17;;
14078;SDS011;7115;50.150;8.568;2023-04-24T05:21:13;0.90;;;0.80;;
14078;SDS011;7115;50.150;8.568;2023-04-24T05:23:42;0.97;;;0.87;;
14078;SDS011;7115;50.150;8.568;2023-04-24T05:26:09;1.87;;;1.00;;
14078;SDS011;7115;50.150;8.568;2023-04-24T05:28:36;4.17;;;2.00;;
14078;SDS011;7115;50.150;8.568;2023-04-24T05:31:03;1.30;;;1.20;;
14078;SDS011;7115;50.150;8.568;2023-04-24T05:33:30;2.77;;;1.10;;
14078;SDS011;7115;50.150;8.568;2023-04-24T05:35:57;1.73;;;1.40;;
14078;SDS011;7115;50.150;8.568;2023-04-24T05:38:24;2.70;;;1.40;;
14078;SDS011;7115;50.150;8.568;2023-04-24T05:40:52;3.50;;;1.70;;
14078;SDS011;7115;50.150;8.568;2023-04-24T05:43:19;2.40;;;1.40;;
14078;SDS011;7115;50.150;8.568;2023-04-24T05:45:46;2.63;;;1.87;;
14078;SDS011;7115;50.150;8.568;2023-04-24T05:48:13;3.27;;;1.90;;
14078;SDS011;7115;50.150;8.568;2023-04-24T05:50:40;1.67;;;1.47;;
14078;SDS011;7115;50.150;8.568;2023-04-24T05:53:06;2.87;;;1.63;;
14078;SDS011;7115;50.150;8.568;2023-04-24T05:55:33;4.63;;;1.90;;
14078;SDS011;7115;50.150;8.568;2023-04-24T05:58:02;2.70;;;1.80;;
14078;SDS011;7115;50.150;8.568;2023-04-24T06:00:29;4.97;;;2.17;;
14078;SDS011;7115;50.150;8.568;2023-04-24T06:02:56;2.30;;;1.90;;
14078;SDS011;7115;50.150;8.568;2023-04-24T06:05:24;3.60;;;2.20;;
14078;SDS011;7115;50.150;8.568;2023-04-24T06:07:51;4.07;;;2.57;;
14078;SDS011;7115;50.150;8.568;2023-04-24T06:10:18;3.90;;;2.10;;
14078;SDS011;7115;50.150;8.568;2023-04-24T06:12:45;2.77;;;1.97;;
14078;SDS011;7115;50.150;8.568;2023-04-24T06:15:13;3.47;;;2.27;;
14078;SDS011;7115;50.150;8.568;2023-04-24T06:17:40;3.63;;;2.40;;
14078;SDS011;7115;50.150;8.568;2023-04-24T06:20:07;2.87;;;2.37;;
14078;SDS011;7115;50.150;8.568;2023-04-24T06:22:34;3.63;;;2.80;;
14078;SDS011;7115;50.150;8.568;2023-04-24T06:25:02;2.53;;;2.10;;
14078;SDS011;7115;50.150;8.568;2023-04-24T06:27:29;2.93;;;2.27;;
14078;SDS011;7115;50.150;8.568;2023-04-24T06:29:56;3.07;;;2.20;;
14078;SDS011;7115;50.150;8.568;2023-04-24T06:32:24;3.87;;;2.43;;
14078;SDS011;7115;50.150;8.568;2023-04-24T06:34:52;4.47;;;2.40;;
14078;SDS011;7115;50.150;8.568;2023-04-24T06:37:19;3.43;;;2.30;;
14078;SDS011;7115;50.150;8.568;2023-04-24T06:39:46;3.53;;;2.40;;
14078;SDS011;7115;50.150;8.568;2023-04-24T06:42:13;3.53;;;2.60;;
14078;SDS011;7115;50.150;8.568;2023-04-24T06:44:40;4.97;;;2.33;;
14078;SDS011;7115;50.150;8.568;2023-04-24T06:47:07;2.80;;;2.10;;
14078;SDS011;7115;50.150;8.568;2023-04-24T06:49:36;5.93;;;3.00;;
14078;SDS011;7115;50.150;8.568;2023-04-24T06:52:03;4.50;;;2.50;;
14078;SDS011;7115;50.150;8.568;2023-04-24T06:54:30;5.33;;;2.90;;
14078;SDS011;7115;50.150;8.568;2023-04-24T06:56:58;3.30;;;2.43;;
14078;SDS011;7115;50.150;8.568;2023-04-24T06:59:25;8.93;;;5.17;;
14078;SDS011;7115;50.150;8.568;2023-04-24T07:01:52;3.83;;;2.53;;
14078;SDS011;7115;50.150;8.568;2023-04-24T07:04:21;3.40;;;2.50;;
14078;SDS011;7115;50.150;8.568;2023-04-24T07:06:50;4.07;;;2.60;;
14078;SDS011;7115;50.150;8.568;2023-04-24T07:09:17;3.60;;;1.93;;
14078;SDS011;7115;50.150;8.568;2023-04-24T07:11:45;3.37;;;2.07;;
14078;SDS011;7115;50.150;8.568;2023-04-24T07:14:12;2.43;;;1.70;;
14078;SDS011;7115;50.150;8.568;2023-04-24T07:16:40;3.70;;;2.97;;
14078;SDS011;7115;50.150;8.568;2023-04-24T07:19:08;3.07;;;1.97;;
14078;SDS011;7115;50.150;8.568;2023-04-24T07:21:35;1.67;;;1.53;;
14078;SDS011;7115;50.150;8.568;2023-04-24T07:24:04;1.90;;;1.70;;
14078;SDS011;7115;50.150;8.568;2023-04-24T07:26:31;3.17;;;1.93;;
14078;SDS011;7115;50.150;8.568;2023-04-24T07:28:58;3.03;;;1.67;;
14078;SDS011;7115;50.150;8.568;2023-04-24T07:31:25;3.00;;;1.50;;
14078;SDS011;7115;50.150;8.568;2023-04-24T07:33:52;5.90;;;2.07;;
14078;SDS011;7115;50.150;8.568;2023-04-24T07:36:19;2.53;;;1.67;;
14078;SDS011;7115;50.150;8.568;2023-04-24T07:38:46;2.37;;;1.90;;
14078;SDS011;7115;50.150;8.568;2023-04-24T07:41:15;4.47;;;1.70;;
14078;SDS011;7115;50.150;8.568;2023-04-24T07:43:42;2.50;;;1.93;;
14078;SDS011;7115;50.150;8.568;2023-04-24T07:46:09;2.03;;;1.50;;
14078;SDS011;7115;50.150;8.568;2023-04-24T07:48:36;1.90;;;1.63;;
14078;SDS011;7115;50.150;8.568;2023-04-24T07:51:03;5.30;;;1.57;;
14078;SDS011;7115;50.150;8.568;2023-04-24T07:53:30;3.13;;;1.63;;
14078;SDS011;7115;50.150;8.568;2023-04-24T07:55:58;2.10;;;1.67;;
14078;SDS011;7115;50.150;8.568;2023-04-24T07:58:27;5.13;;;3.33;;
14078;SDS011;7115;50.150;8.568;2023-04-24T08:00:54;3.43;;;1.80;;
14078;SDS011;7115;50.150;8.568;2023-04-24T08:03:21;2.40;;;1.80;;
14078;SDS011;7115;50.150;8.568;2023-04-24T08:05:49;2.03;;;1.83;;
14078;SDS011;7115;50.150;8.568;2023-04-24T08:08:17;4.03;;;2.10;;
14078;SDS011;7115;50.150;8.568;2023-04-24T08:10:46;1.90;;;1.50;;
14078;SDS011;7115;50.150;8.568;2023-04-24T08:13:13;2.13;;;1.70;;
14078;SDS011;7115;50.150;8.568;2023-04-24T08:15:41;2.03;;;1.70;;
14078;SDS011;7115;50.150;8.568;2023-04-24T08:18:08;1.90;;;1.60;;
14078;SDS011;7115;50.150;8.568;2023-04-24T08:20:38;2.03;;;1.70;;
14078;SDS011;7115;50.150;8.568;2023-04-24T08:23:05;7.20;;;4.13;;
14078;SDS011;7115;50.150;8.568;2023-04-24T08:25:32;2.87;;;1.90;;
14078;SDS011;7115;50.150;8.568;2023-04-24T08:28:02;2.97;;;1.70;;
14078;SDS011;7115;50.150;8.568;2023-04-24T08:30:29;2.37;;;1.97;;
14078;SDS011;7115;50.150;8.568;2023-04-24T08:32:58;2.07;;;1.70;;
14078;SDS011;7115;50.150;8.568;2023-04-24T08:35:26;1.93;;;1.70;;
14078;SDS011;7115;50.150;8.568;2023-04-24T08:37:54;3.53;;;2.00;;
14078;SDS011;7115;50.150;8.568;2023-04-24T08:40:23;1.90;;;1.60;;
14078;SDS011;7115;50.150;8.568;2023-04-24T08:42:55;4.87;;;1.73;;
14078;SDS011;7115;50.150;8.568;2023-04-24T08:45:23;4.13;;;1.93;;
14078;SDS011;7115;50.150;8.568;2023-04-24T08:47:50;2.03;;;1.63;;
14078;SDS011;7115;50.150;8.568;2023-04-24T08:50:21;1.53;;;1.43;;
14078;SDS011;7115;50.150;8.568;2023-04-24T08:52:49;2.83;;;1.60;;
14078;SDS011;7115;50.150;8.568;2023-04-24T08:55:17;2.90;;;1.90;;
14078;SDS011;7115;50.150;8.568;2023-04-24T08:57:49;1.93;;;1.63;;
14078;SDS011;7115;50.150;8.568;2023-04-24T09:00:19;2.30;;;1.83;;
14078;SDS011;7115;50.150;8.568;2023-04-24T09:02:47;3.60;;;2.00;;
14078;SDS011;7115;50.150;8.568;2023-04-24T09:05:16;4.00;;;2.07;;
14078;SDS011;7115;50.150;8.568;2023-04-24T09:07:48;2.27;;;1.70;;
14078;SDS011;7115;50.150;8.568;2023-04-24T09:10:19;3.10;;;1.90;;
14078;SDS011;7115;50.150;8.568;2023-04-24T09:12:48;2.40;;;1.53;;
14078;SDS011;7115;50.150;8.568;2023-04-24T09:15:17;2.70;;;1.50;;
14078;SDS011;7115;50.150;8.568;2023-04-24T09:17:45;2.90;;;1.47;;
14078;SDS011;7115;50.150;8.568;2023-04-24T09:20:12;2.93;;;1.97;;
14078;SDS011;7115;50.150;8.568;2023-04-24T09:22:39;6.43;;;3.40;;
14078;SDS011;7115;50.150;8.568;2023-04-24T09:25:08;4.33;;;2.10;;
14078;SDS011;7115;50.150;8.568;2023-04-24T09:27:41;1.90;;;1.67;;
14078;SDS011;7115;50.150;8.568;2023-04-24T09:30:09;4.83;;;1.60;;
14078;SDS011;7115;50.150;8.568;2023-04-24T09:32:37;2.73;;;1.77;;
14078;SDS011;7115;50.150;8.568;2023-04-24T09:35:05;1.77;;;1.57;;
14078;SDS011;7115;50.150;8.568;2023-04-24T09:37:35;3.23;;;1.87;;
14078;SDS011;7115;50.150;8.568;2023-04-24T09:40:10;2.93;;;1.90;;
14078;SDS011;7115;50.150;8.568;2023-04-24T09:42:39;3.23;;;2.13;;
14078;SDS011;7115;50.150;8.568;2023-04-24T09:45:09;3.17;;;1.77;;
14078;SDS011;7115;50.150;8.568;2023-04-24T09:47:42;4.37;;;1.90;;
14078;SDS011;7115;50.150;8.568;2023-04-24T09:50:10;2.17;;;1.53;;
14078;SDS011;7115;50.150;8.568;2023-04-24T09:52:42;1.40;;;1.30;;
14078;SDS011;7115;50.150;8.568;2023-04-24T09:55:18;2.50;;;1.60;;
14078;SDS011;7115;50.150;8.568;2023-04-24T09:57:49;2.87;;;1.70;;
14078;SDS011;7115;50.150;8.568;2023-04-24T10:00:23;5.07;;;1.50;;
14078;SDS011;7115;50.150;8.568;2023-04-24T10:02:55;3.50;;;1.80;;
14078;SDS011;7115;50.150;8.568;2023-04-24T10:05:24;3.53;;;1.63;;
14078;SDS011;7115;50.150;8.568;2023-04-24T10:07:56;2.00;;;1.50;;
14078;SDS011;7115;50.150;8.568;2023-04-24T10:10:24;1.80;;;1.50;;
14078;SDS011;7115;50.150;8.568;2023-04-24T10:12:52;2.83;;;1.73;;
14078;SDS011;7115;50.150;8.568;2023-04-24T10:15:19;2.93;;;1.80;;
14078;SDS011;7115;50.150;8.568;2023-04-24T10:17:47;3.23;;;1.70;;
14078;SDS011;7115;50.150;8.568;2023-04-24T10:20:22;1.87;;;1.53;;
14078;SDS011;7115;50.150;8.568;2023-04-24T10:22:50;1.63;;;1.20;;
14078;SDS011;7115;50.150;8.568;2023-04-24T10:25:19;2.70;;;1.20;;
14078;SDS011;7115;50.150;8.568;2023-04-24T10:27:49;1.67;;;1.30;;
14078;SDS011;7115;50.150;8.568;2023-04-24T10:30:16;9.33;;;5.17;;
14078;SDS011;7115;50.150;8.568;2023-04-24T10:32:44;2.70;;;1.93;;
14078;SDS011;7115;50.150;8.568;2023-04-24T10:35:12;1.53;;;1.43;;
14078;SDS011;7115;50.150;8.568;2023-04-24T10:37:40;1.63;;;1.53;;
14078;SDS011;7115;50.150;8.568;2023-04-24T10:40:10;2.13;;;1.70;;
14078;SDS011;7115;50.150;8.568;2023-04-24T10:42:39;2.87;;;1.83;;
14078;SDS011;7115;50.150;8.568;2023-04-24T10:45:17;1.90;;;1.70;;
14078;SDS011;7115;50.150;8.568;2023-04-24T10:47:50;2.40;;;1.80;;
14078;SDS011;7115;50.150;8.568;2023-04-24T10:50:18;2.07;;;1.60;;
14078;SDS011;7115;50.150;8.568;2023-04-24T10:52:46;4.47;;;2.17;;
14078;SDS011;7115;50.150;8.568;2023-04-24T10:55:13;1.37;;;1.27;;
14078;SDS011;7115;50.150;8.568;2023-04-24T11:00:34;3.07;;;1.50;;
14078;SDS011;7115;50.150;8.568;2023-04-24T11:03:04;2.43;;;1.57;;
14078;SDS011;7115;50.150;8.568;2023-04-24T11:05:51;2.47;;;1.60;;
14078;SDS011;7115;50.150;8.568;2023-04-24T11:08:22;2.90;;;1.73;;
14078;SDS011;7115;50.150;8.568;2023-04-24T11:10:55;4.40;;;1.90;;
14078;SDS011;7115;50.150;8.568;2023-04-24T11:13:27;7.23;;;2.33;;
14078;SDS011;7115;50.150;8.568;2023-04-24T11:16:14;3.43;;;1.63;;
14078;SDS011;7115;50.150;8.568;2023-04-24T11:18:49;3.30;;;1.50;;
14078;SDS011;7115;50.150;8.568;2023-04-24T11:21:19;3.10;;;1.43;;
14078;SDS011;7115;50.150;8.568;2023-04-24T11:23:47;3.00;;;1.10;;
14078;SDS011;7115;50.150;8.568;2023-04-24T11:26:17;1.30;;;1.10;;
14078;SDS011;7115;50.150;8.568;2023-04-24T11:28:46;2.07;;;1.03;;
14078;SDS011;7115;50.150;8.568;2023-04-24T11:34:06;1.10;;;1.00;;
14078;SDS011;7115;50.150;8.568;2023-04-24T11:36:34;2.03;;;1.07;;
14078;SDS011;7115;50.150;8.568;2023-04-24T11:39:01;1.30;;;0.87;;
14078;SDS011;7115;50.150;8.568;2023-04-24T11:41:28;2.43;;;1.07;;
14078;SDS011;7115;50.150;8.568;2023-04-24T11:43:56;2.33;;;0.93;;
14078;SDS011;7115;50.150;8.568;2023-04-24T11:46:26;1.60;;;1.10;;
14078;SDS011;7115;50.150;8.568;2023-04-24T11:48:56;1.73;;;1.10;;
14078;SDS011;7115;50.150;8.568;2023-04-24T11:51:24;1.73;;;1.17;;
14078;SDS011;7115;50.150;8.568;2023-04-24T11:54:02;1.50;;;1.27;;
14078;SDS011;7115;50.150;8.568;2023-04-24T11:56:34;1.50;;;1.33;;
14078;SDS011;7115;50.150;8.568;2023-04-24T11:59:01;1.93;;;1.10;;
14078;SDS011;7115;50.150;8.568;2023-04-24T12:01:42;1.70;;;1.00;;
14078;SDS011;7115;50.150;8.568;2023-04-24T12:04:11;1.40;;;1.10;;
14078;SDS011;7115;50.150;8.568;2023-04-24T12:06:39;4.77;;;1.07;;
14078;SDS011;7115;50.150;8.568;2023-04-24T12:09:06;4.27;;;1.50;;
14078;SDS011;7115;50.150;8.568;2023-04-24T12:11:52;2.43;;;1.30;;
14078;SDS011;7115;50.150;8.568;2023-04-24T12:14:22;1.23;;;0.93;;
14078;SDS011;7115;50.150;8.568;2023-04-24T12:16:49;4.00;;;1.60;;
14078;SDS011;7115;50.150;8.568;2023-04-24T12:19:20;5.87;;;1.60;;
14078;SDS011;7115;50.150;8.568;2023-04-24T12:21:58;2.10;;;1.30;;
14078;SDS011;7115;50.150;8.568;2023-04-24T12:24:26;2.20;;;1.33;;
14078;SDS011;7115;50.150;8.568;2023-04-24T12:26:53;3.53;;;1.13;;
14078;SDS011;7115;50.150;8.568;2023-04-24T12:29:20;1.57;;;1.30;;
14078;SDS011;7115;50.150;8.568;2023-04-24T12:31:48;3.40;;;1.63;;
14078;SDS011;7115;50.150;8.568;2023-04-24T12:34:20;2.60;;;1.40;;
14078;SDS011;7115;50.150;8.568;2023-04-24T12:36:48;2.20;;;1.80;;
14078;SDS011;7115;50.150;8.568;2023-04-24T12:39:16;2.40;;;1.67;;
14078;SDS011;7115;50.150;8.568;2023-04-24T12:41:56;3.67;;;2.00;;
14078;SDS011;7115;50.150;8.568;2023-04-24T12:44:29;2.80;;;1.80;;
14078;SDS011;7115;50.150;8.568;2023-04-24T12:46:57;4.00;;;2.07;;
14078;SDS011;7115;50.150;8.568;2023-04-24T12:49:26;2.80;;;1.87;;
14078;SDS011;7115;50.150;8.568;2023-04-24T12:51:53;2.30;;;1.80;;
14078;SDS011;7115;50.150;8.568;2023-04-24T12:54:20;3.33;;;2.30;;
14078;SDS011;7115;50.150;8.568;2023-04-24T12:56:48;3.90;;;2.10;;
14078;SDS011;7115;50.150;8.568;2023-04-24T12:59:15;3.17;;;2.03;;
14078;SDS011;7115;50.150;8.568;2023-04-24T13:01:42;4.47;;;2.10;;
14078;SDS011;7115;50.150;8.568;2023-04-24T13:04:09;3.87;;;2.63;;
14078;SDS011;7115;50.150;8.568;2023-04-24T13:06:38;4.10;;;2.50;;
14078;SDS011;7115;50.150;8.568;2023-04-24T13:09:04;4.10;;;2.60;;
14078;SDS011;7115;50.150;8.568;2023-04-24T13:11:31;2.63;;;2.00;;
14078;SDS011;7115;50.150;8.568;2023-04-24T13:13:59;3.77;;;2.37;;
14078;SDS011;7115;50.150;8.568;2023-04-24T13:16:26;5.63;;;2.03;;
14078;SDS011;7115;50.150;8.568;2023-04-24T13:18:53;2.13;;;1.87;;
14078;SDS011;7115;50.150;8.568;2023-04-24T13:21:20;3.20;;;2.47;;
14078;SDS011;7115;50.150;8.568;2023-04-24T13:23:49;5.07;;;2.43;;
14078;SDS011;7115;50.150;8.568;2023-04-24T13:26:16;4.93;;;2.30;;
14078;SDS011;7115;50.150;8.568;2023-04-24T13:28:43;2.93;;;2.33;;
14078;SDS011;7115;50.150;8.568;2023-04-24T13:31:10;5.23;;;2.43;;
14078;SDS011;7115;50.150;8.568;2023-04-24T13:33:37;4.23;;;2.30;;
14078;SDS011;7115;50.150;8.568;2023-04-24T13:36:04;4.43;;;1.87;;
14078;SDS011;7115;50.150;8.568;2023-04-24T13:38:31;2.93;;;1.87;;
14078;SDS011;7115;50.150;8.568;2023-04-24T13:41:00;4.37;;;2.50;;
14078;SDS011;7115;50.150;8.568;2023-04-24T13:43:27;7.03;;;2.80;;
14078;SDS011;7115;50.150;8.568;2023-04-24T13:45:54;4.37;;;2.37;;
14078;SDS011;7115;50.150;8.568;2023-04-24T13:48:21;6.90;;;3.53;;
14078;SDS011;7115;50.150;8.568;2023-04-24T13:50:48;3.23;;;2.20;;
14078;SDS011;7115;50.150;8.568;2023-04-24T13:53:15;5.57;;;3.03;;
14078;SDS011;7115;50.150;8.568;2023-04-24T13:55:43;4.97;;;2.73;;
14078;SDS011;7115;50.150;8.568;2023-04-24T13:58:11;3.40;;;2.40;;
14078;SDS011;7115;50.150;8.568;2023-04-24T14:00:38;3.87;;;2.40;;
14078;SDS011;7115;50.150;8.568;2023-04-24T14:03:05;4.53;;;2.23;;
14078;SDS011;7115;50.150;8.568;2023-04-24T14:05:32;3.97;;;2.40;;
14078;SDS011;7115;50.150;8.568;2023-04-24T14:07:59;3.10;;;2.50;;
14078;SDS011;7115;50.150;8.568;2023-04-24T14:10:26;3.07;;;2.20;;
14078;SDS011;7115;50.150;8.568;2023-04-24T14:12:53;13.83;;;3.93;;
14078;SDS011;7115;50.150;8.568;2023-04-24T14:15:22;4.30;;;1.97;;
14078;SDS011;7115;50.150;8.568;2023-04-24T14:17:49;5.77;;;1.83;;
14078;SDS011;7115;50.150;8.568;2023-04-24T14:20:16;4.17;;;2.00;;
14078;SDS011;7115;50.150;8.568;2023-04-24T14:22:43;3.37;;;1.90;;
14078;SDS011;7115;50.150;8.568;2023-04-24T14:25:10;4.87;;;2.40;;
14078;SDS011;7115;50.150;8.568;2023-04-24T14:27:37;5.07;;;2.00;;
14078;SDS011;7115;50.150;8.568;2023-04-24T14:30:04;4.23;;;1.63;;
14078;SDS011;7115;50.150;8.568;2023-04-24T14:32:33;3.20;;;1.93;;
14078;SDS011;7115;50.150;8.568;2023-04-24T14:35:01;2.13;;;1.83;;
14078;SDS011;7115;50.150;8.568;2023-04-24T14:37:28;3.43;;;1.97;;
14078;SDS011;7115;50.150;8.568;2023-04-24T14:39:56;2.03;;;1.80;;
14078;SDS011;7115;50.150;8.568;2023-04-24T14:42:40;2.63;;;1.90;;
14078;SDS011;7115;50.150;8.568;2023-04-24T14:45:08;1.83;;;1.47;;
14078;SDS011;7115;50.150;8.568;2023-04-24T14:47:37;2.87;;;1.90;;
14078;SDS011;7115;50.150;8.568;2023-04-24T14:50:05;3.60;;;2.00;;
14078;SDS011;7115;50.150;8.568;2023-04-24T14:52:34;4.83;;;2.97;;
14078;SDS011;7115;50.150;8.568;2023-04-24T14:55:02;3.67;;;2.10;;
14078;SDS011;7115;50.150;8.568;2023-04-24T14:57:29;4.43;;;2.13;;
14078;SDS011;7115;50.150;8.568;2023-04-24T14:59:56;3.20;;;2.20;;
14078;SDS011;7115;50.150;8.568;2023-04-24T15:02:23;4.80;;;2.13;;
14078;SDS011;7115;50.150;8.568;2023-04-24T15:04:51;3.67;;;2.23;;
14078;SDS011;7115;50.150;8.568;2023-04-24T15:07:19;3.57;;;2.23;;
14078;SDS011;7115;50.150;8.568;2023-04-24T15:09:46;2.43;;;1.90;;
14078;SDS011;7115;50.150;8.568;2023-04-24T15:12:13;5.83;;;2.43;;